Galesburg, ND (58035)

5:25 AM CDT on July 28, 2015 (GMT -0500)
PFS Hunter | | Change Station
CLOSE
Current Station
Personal Weather Station
Location: Hunter, ND
Elevation: 974 ft
Nearby Weather Stations
Active Advisory: Wind Advisory

Elev 974 ft 47.15 °N, 97.21 °W | Updated 15 seconds ago

Rain
Rain
69.6 °F
Feels Like 69.6 °F
N
6.3
Wind Variable Wind from SE
Gusts 6.3 mph

Today
High -- | Low -- °F
--% Chance of Precip.
Yesterday
High -- | Low -- °F
Precip. -- in
6:02 AM 9:08 PM
Waxing Gibbous, 88% visible
Pressure 29.65 in
Visibility 5.0 miles
Clouds Scattered Clouds 1700 ft
Mostly Cloudy 9500 ft
Overcast 11000 ft
Dew Point 68 °F
Humidity 95%
Rainfall 0.25 in
Snow Depth Not available.
UV 0 out of 12
Pollen 8.10 out of 12
Air Quality Not available.
Flu Activity Not available.
SPECI KFAR 281000Z 13013KT 5SM RA BR SCT017 BKN095 OVC110 23/21 A2965 RMK AO2 P0002 T02280211

More Conditions Fewer Conditions

Pressure 29.65 in
Visibility 5.0 miles
Clouds Scattered Clouds 1700 ft
Mostly Cloudy 9500 ft
Overcast 11000 ft
Dew Point 68 °F
Humidity 95%
Rainfall 0.25 in
Snow Depth Not available.
UV 0 out of 12
Pollen 8.10 out of 12
Air Quality Not available.
Flu Activity Not available.
SPECI KFAR 281000Z 13013KT 5SM RA BR SCT017 BKN095 OVC110 23/21 A2965 RMK AO2 P0002 T02280211

More Conditions Fewer Conditions

10-Day Weather Forecast

×

Almanac

Astronomy

Jul. 28, 2015 Rise Set
Actual Time
Civil Twilight
Nautical Twilight
Astronomical Twilight
Moon
Length of Visible Light
Length of Day
Tomorrow will be .
, % of the Moon is Illuminated

Today's Extremes

State Highs State Lows

Community

WunderPhotos

Upload Photos

1,841,800 photos uploaded!

WunderBlogs® & News

Nearby

Air Quality

  Air Quality AQ Index Pollutant
Not available.

Snow Depth

Station Depth Elevation

Earthquake Activity

City Distance Mag. Time & Date
Minimum magnitude displayed is 2.5.

Coastal Water Temperatures

Place Temperature

Stations

Nearby Weather Stations

Station Location Temp. Windchill Dew Point Humidity Wind Precip. Elev Updated Type
                   
Wind Advisory
Statement as of 4:02 AM CDT on July 28, 2015

... Wind Advisory in effect from 3 PM this afternoon to 11 PM CDT
this evening...

The National Weather Service in Grand Forks has issued a Wind
Advisory... which is in effect from 3 PM this afternoon to 11 PM
CDT this evening.

* Winds... becoming southwest 30 to 35 mph with gusts up to 50 mph.
The strongest winds should be in the Devils Lake basin... with
gusts to 55 mph possible.

* Timing... this afternoon through this evening.

* Impacts... waves of 4 to 6 feet may be generated in the Devils
Lake basin and over other large lakes... resulting in roadbed
erosion in susceptible areas.

Precautionary/preparedness actions...

A Wind Advisory means that winds of 35 mph are expected. Winds
this strong can make driving difficult... especially for high
profile vehicles. Use extra caution.



Dk